CheckWX is a tool to help pilots better visualize weather data.  It is not intended as a substitute for an official pre-flight weather briefing.

21:35:45 UTC

KFNT TAF
Bishop International Airport
Flint, Michigan, USA
KFNT 202045Z 2021/2118 17008KT 4SM -RA BR OVC012 FM202300 16008KT 3SM -RA BR BKN006 OVC012 FM210500 19004KT 3SM BR OVC005 FM211500 34004KT P6SM OVC015

Mar-20@
21:00 UTC

Mar-20 @ 21:00 UTC

Mar-20@
23:00 UTC

Mar-20 @ 23:00 UTC

KFNT 202045Z 2021/2118 17008KT 4SM -RA BR OVC012
Wind
  • 170° at 8 KTS
Conditions
Light Rain, Mist
Cloud Levels
  • Overcast at 1,200' AGL

Mar-20@
23:00 UTC

Mar-20 @ 23:00 UTC

Mar-21@
05:00 UTC

Mar-21 @ 05:00 UTC

FM202300 16008KT 3SM -RA BR BKN006 OVC012

From

From Standard forecast or significant change

Wind
  • 160° at 8 KTS
Conditions
Light Rain, Mist
Cloud Levels
  • Broken at 600' AGL
  • Overcast at 1,200' AGL

Mar-21@
05:00 UTC

Mar-21 @ 05:00 UTC

Mar-21@
15:00 UTC

Mar-21 @ 15:00 UTC

FM210500 19004KT 3SM BR OVC005

From

From Standard forecast or significant change

Wind
  • 190° at 4 KTS
Conditions
Mist
Cloud Levels
  • Overcast at 500' AGL

Mar-21@
15:00 UTC

Mar-21 @ 15:00 UTC

Mar-21@
18:00 UTC

Mar-21 @ 18:00 UTC

FM211500 34004KT P6SM OVC015

From

From Standard forecast or significant change

Wind
  • 340° at 4 KTS
Cloud Levels
  • Overcast at 1,500' AGL